KILN/ILN METAR and TAF weather

Enter ICAO airport designator
Station Type Date Time Source
KILN METAR 2021/10/20 06:54 UTC NOAA

KILN 200654Z AUTO 00000KT 10SM CLR 08/07 A3018 RMK AO2 SLP225 T00830067


Station Type Date Time Source
KILN Decoded METAR 2021/10/20 06:54 UTC NOAA

WILMINGTON INDUSTRIAL AIRPORT , OH, United States (KILN) 39-26N 083-47W 332M
Oct 20, 2021 - 02:54 AM EDT / 2021.10.20 0654 UTC
Wind: Calm:0
Visibility: 10 mile(s):0
Sky conditions: clear
Temperature: 46.9 F (8.3 C)
Dew Point: 44.1 F (6.7 C)
Relative Humidity: 89%
Pressure (altimeter): 30.18 in. Hg (1022 hPa)
ob: KILN 200654Z AUTO 00000KT 10SM CLR 08/07 A3018 RMK AO2 SLP225 T00830067
cycle: 7

Station Type Date Time Source
KILN TAF 2021/10/20 06:27 UTC NOAA

TAF KILN 200524Z 2006/2106 19003KT P6SM SKC
FM201400 21011KT P6SM SKC
FM202300 20008KT P6SM BKN250

Example: see airport list